createdAt,value
2019-04-03T00:01:04.889Z,100.00
2019-04-03T00:03:34.206Z,100.00
2019-04-03T00:06:03.721Z,100.00
2019-04-03T00:08:36.135Z,100.00
2019-04-03T00:11:03.563Z,100.00
2019-04-03T00:13:31.842Z,100.00
2019-04-03T00:16:00.139Z,100.00
2019-04-03T00:18:28.447Z,100.00
2019-04-03T00:20:56.836Z,100.00
2019-04-03T00:23:25.169Z,100.00
2019-04-03T00:25:53.583Z,100.00
2019-04-03T00:28:25.148Z,100.00
2019-04-03T00:30:55.496Z,100.00
2019-04-03T00:33:23.930Z,100.00
2019-04-03T00:35:53.730Z,100.00
2019-04-03T00:38:24.330Z,100.00
2019-04-03T00:40:54.294Z,100.00
2019-04-03T00:43:24.742Z,100.00
2019-04-03T00:45:54.675Z,100.00
2019-04-03T00:48:25.051Z,100.00
2019-04-03T00:50:56.383Z,100.00
2019-04-03T00:53:23.678Z,100.00
2019-04-03T00:55:51.977Z,100.00
2019-04-03T00:58:36.851Z,100.00
2019-04-03T01:01:09.604Z,100.00
2019-04-03T01:03:38.084Z,100.00
2019-04-03T01:06:06.388Z,100.00
2019-04-03T01:08:34.713Z,100.00
2019-04-03T01:11:03.877Z,100.00
2019-04-03T01:13:32.357Z,100.00
2019-04-03T01:16:02.465Z,100.00
2019-04-03T01:18:31.039Z,100.00
2019-04-03T01:20:59.382Z,100.00
2019-04-03T01:23:27.881Z,100.00
2019-04-03T01:25:56.188Z,100.00
2019-04-03T01:28:24.529Z,100.00
2019-04-03T01:30:52.816Z,100.00
2019-04-03T01:33:21.218Z,100.00
2019-04-03T01:35:49.616Z,100.00
2019-04-03T01:38:19.478Z,100.00
2019-04-03T01:40:48.915Z,100.00
2019-04-03T01:43:18.098Z,100.00
2019-04-03T01:45:47.082Z,100.00
2019-04-03T01:48:15.386Z,100.00
2019-04-03T01:50:43.671Z,100.00
2019-04-03T01:53:12.526Z,100.00
2019-04-03T01:55:41.513Z,100.00
2019-04-03T01:58:09.804Z,100.00
2019-04-03T02:00:38.260Z,100.00
2019-04-03T02:03:06.775Z,100.00
2019-04-03T02:05:37.509Z,100.00
2019-04-03T02:08:05.978Z,100.00
2019-04-03T02:10:34.296Z,100.00
2019-04-03T02:13:02.963Z,100.00
2019-04-03T02:15:31.325Z,100.00
2019-04-03T02:17:59.703Z,100.00
2019-04-03T02:20:28.090Z,100.00
2019-04-03T02:22:59.615Z,100.00
2019-04-03T02:25:26.518Z,100.00
2019-04-03T02:27:54.827Z,100.00
2019-04-03T02:30:23.139Z,100.00
2019-04-03T02:32:55.222Z,100.00
2019-04-03T02:35:21.616Z,100.00
2019-04-03T02:37:50.781Z,100.00
2019-04-03T02:40:19.325Z,100.00
2019-04-03T02:42:47.610Z,100.00
2019-04-03T02:45:15.895Z,100.00
2019-04-03T02:47:44.404Z,100.00
2019-04-03T02:50:14.351Z,100.00
2019-04-03T02:52:42.937Z,100.00
2019-04-03T02:55:11.351Z,100.00
2019-04-03T02:57:39.903Z,100.00
2019-04-03T03:00:09.538Z,100.00
2019-04-03T03:02:38.043Z,100.00
2019-04-03T03:05:06.492Z,100.00
2019-04-03T03:07:36.338Z,100.00
2019-04-03T03:10:07.195Z,100.00
2019-04-03T03:12:35.632Z,100.00
2019-04-03T03:15:05.657Z,100.00
2019-04-03T03:17:33.940Z,100.00
2019-04-03T03:20:06.951Z,100.00
2019-04-03T03:22:35.906Z,100.00
2019-04-03T03:25:06.256Z,100.00
2019-04-03T03:27:35.727Z,100.00
2019-04-03T03:30:30.539Z,100.00
2019-04-03T03:32:37.347Z,100.00
2019-04-03T03:35:13.325Z,100.00
2019-04-03T03:37:37.476Z,100.00
2019-04-03T03:40:06.743Z,100.00
2019-04-03T03:42:35.220Z,100.00
2019-04-03T03:45:04.314Z,100.00
2019-04-03T03:47:35.044Z,100.00
2019-04-03T03:50:03.485Z,100.00
2019-04-03T03:52:36.109Z,100.00
2019-04-03T03:55:02.404Z,100.00
2019-04-03T03:57:31.206Z,100.00
2019-04-03T03:59:59.506Z,100.00
2019-04-03T04:02:27.847Z,100.00
2019-04-03T04:04:57.008Z,100.00
2019-04-03T04:07:25.989Z,100.00
2019-04-03T04:09:54.434Z,100.00
2019-04-03T04:12:23.410Z,100.00
2019-04-03T04:14:54.292Z,100.00
2019-04-03T04:17:21.864Z,100.00
2019-04-03T04:19:53.258Z,100.00
2019-04-03T04:22:22.959Z,100.00
2019-04-03T04:24:53.125Z,100.00
2019-04-03T04:27:21.434Z,100.00
2019-04-03T04:29:50.044Z,100.00
2019-04-03T04:32:18.504Z,100.00
2019-04-03T04:34:49.204Z,100.00
2019-04-03T04:37:16.873Z,100.00
2019-04-03T04:39:45.205Z,100.00
2019-04-03T04:42:13.489Z,100.00
2019-04-03T04:44:42.328Z,100.00
2019-04-03T04:47:10.595Z,100.00
2019-04-03T04:49:38.908Z,100.00
2019-04-03T04:52:07.222Z,100.00
2019-04-03T04:54:35.613Z,100.00
2019-04-03T04:57:04.206Z,100.00
2019-04-03T04:59:32.516Z,100.00
2019-04-03T05:02:00.866Z,100.00
2019-04-03T05:04:29.552Z,100.00
2019-04-03T05:07:00.092Z,100.00
2019-04-03T05:09:28.049Z,100.00
2019-04-03T05:11:56.355Z,100.00
2019-04-03T05:14:24.810Z,100.00
2019-04-03T05:16:54.120Z,100.00
2019-04-03T05:19:23.220Z,100.00
2019-04-03T05:21:52.864Z,100.00
2019-04-03T05:24:21.554Z,100.00
2019-04-03T05:26:49.836Z,100.00
2019-04-03T05:29:18.214Z,100.00
2019-04-03T05:31:46.570Z,100.00
2019-04-03T05:34:14.824Z,100.00
2019-04-03T05:36:43.229Z,100.00
2019-04-03T05:39:11.678Z,100.00
2019-04-03T05:41:40.028Z,100.00
2019-04-03T05:44:08.412Z,100.00
2019-04-03T05:46:37.665Z,100.00
2019-04-03T05:49:06.216Z,100.00
2019-04-03T05:51:34.857Z,100.00
2019-04-03T05:54:03.144Z,100.00
2019-04-03T05:56:31.731Z,100.00
2019-04-03T05:59:02.484Z,100.00
2019-04-03T06:01:30.187Z,100.00
2019-04-03T06:03:58.477Z,100.00
2019-04-03T06:06:26.754Z,100.00
2019-04-03T06:08:56.773Z,100.00
2019-04-03T06:11:25.372Z,100.00
2019-04-03T06:13:53.841Z,100.00
2019-04-03T06:16:24.758Z,100.00
2019-04-03T06:18:53.340Z,100.00
2019-04-03T06:21:21.699Z,100.00
2019-04-03T06:23:52.086Z,100.00
2019-04-03T06:26:20.854Z,100.00
2019-04-03T06:28:49.221Z,100.00
2019-04-03T06:31:17.788Z,100.00
2019-04-03T06:33:46.696Z,100.00
2019-04-03T06:36:16.890Z,100.00
2019-04-03T06:38:45.111Z,100.00
2019-04-03T06:41:14.331Z,100.00
2019-04-03T06:43:42.641Z,100.00
2019-04-03T06:46:10.970Z,100.00
2019-04-03T06:48:39.255Z,100.00
2019-04-03T06:51:07.572Z,100.00
2019-04-03T06:53:35.970Z,100.00
2019-04-03T06:56:04.441Z,100.00
2019-04-03T06:58:38.129Z,100.00
2019-04-03T07:01:03.044Z,100.00
2019-04-03T07:03:32.274Z,100.00
2019-04-03T07:06:01.452Z,100.00
2019-04-03T07:08:34.901Z,100.00
2019-04-03T07:10:59.931Z,100.00
2019-04-03T07:13:29.716Z,100.00
2019-04-03T07:15:58.370Z,100.00
2019-04-03T07:18:26.678Z,100.00
2019-04-03T07:20:55.299Z,100.00
2019-04-03T07:23:23.800Z,100.00
2019-04-03T07:25:52.247Z,100.00
2019-04-03T07:28:20.883Z,100.00
2019-04-03T07:30:52.941Z,100.00
2019-04-03T07:33:19.750Z,100.00
2019-04-03T07:35:48.035Z,100.00
2019-04-03T07:38:16.396Z,100.00
2019-04-03T07:40:45.429Z,100.00
2019-04-03T07:43:13.885Z,100.00
2019-04-03T07:45:43.877Z,100.00
2019-04-03T07:48:12.490Z,100.00
2019-04-03T07:50:41.989Z,100.00
2019-04-03T07:53:10.567Z,100.00
2019-04-03T07:55:38.884Z,100.00
2019-04-03T07:58:07.309Z,100.00
2019-04-03T08:00:36.295Z,100.00
2019-04-03T08:03:06.042Z,100.00
2019-04-03T08:05:34.484Z,100.00
2019-04-03T08:08:03.328Z,100.00
2019-04-03T08:10:31.830Z,100.00
2019-04-03T08:13:00.286Z,100.00
2019-04-03T08:15:28.568Z,100.00
2019-04-03T08:17:57.851Z,100.00
2019-04-03T08:20:26.471Z,100.00
2019-04-03T08:22:54.925Z,100.00
2019-04-03T08:25:23.201Z,100.00
2019-04-03T08:27:54.534Z,100.00
2019-04-03T08:30:21.620Z,100.00
2019-04-03T08:32:49.941Z,100.00
2019-04-03T08:35:23.074Z,100.00
2019-04-03T08:37:49.291Z,100.00
2019-04-03T08:40:19.639Z,100.00
2019-04-03T08:42:47.625Z,100.00
2019-04-03T08:45:16.317Z,100.00
2019-04-03T08:47:46.293Z,100.00
2019-04-03T08:50:15.544Z,100.00
2019-04-03T08:52:44.571Z,100.00
2019-04-03T08:55:14.465Z,100.00
2019-04-03T08:57:45.345Z,100.00
2019-04-03T09:00:12.906Z,100.00
2019-04-03T09:02:43.533Z,100.00
2019-04-03T09:05:13.715Z,100.00
2019-04-03T09:07:41.766Z,100.00
2019-04-03T09:10:10.254Z,100.00
2019-04-03T09:12:38.925Z,100.00
2019-04-03T09:15:07.614Z,100.00
2019-04-03T09:17:35.901Z,100.00
2019-04-03T09:20:04.794Z,100.00
2019-04-03T09:22:33.187Z,100.00
2019-04-03T09:25:02.203Z,100.00
2019-04-03T09:27:30.599Z,100.00
2019-04-03T09:29:58.978Z,100.00
2019-04-03T09:32:27.270Z,100.00
2019-04-03T09:34:55.911Z,100.00
2019-04-03T09:37:24.398Z,100.00
2019-04-03T09:39:52.741Z,100.00
2019-04-03T09:42:21.864Z,100.00
2019-04-03T09:44:50.145Z,100.00
2019-04-03T09:47:19.564Z,100.00
2019-04-03T09:49:48.280Z,100.00
2019-04-03T09:52:16.563Z,100.00
2019-04-03T09:54:45.278Z,100.00
2019-04-03T09:57:13.566Z,100.00
2019-04-03T09:59:41.887Z,100.00
2019-04-03T10:02:10.370Z,100.00
2019-04-03T10:04:39.911Z,100.00
2019-04-03T10:07:08.430Z,100.00
2019-04-03T10:09:38.698Z,98.98
2019-04-03T10:12:07.058Z,99.44
2019-04-03T10:14:35.442Z,97.51
2019-04-03T10:17:05.939Z,93.97
2019-04-03T10:19:33.740Z,90.50
2019-04-03T10:22:02.146Z,89.89
2019-04-03T10:24:31.053Z,91.79
2019-04-03T10:27:00.328Z,91.55
2019-04-03T10:29:28.727Z,88.81
2019-04-03T10:31:58.189Z,90.81
2019-04-03T10:34:27.282Z,89.34
2019-04-03T10:36:56.018Z,89.76
2019-04-03T10:39:24.488Z,90.59
2019-04-03T10:41:52.770Z,88.09
2019-04-03T10:44:21.092Z,87.46
2019-04-03T10:46:50.259Z,89.19
2019-04-03T10:49:19.099Z,89.60
2019-04-03T10:51:47.397Z,88.16
2019-04-03T10:54:15.682Z,88.11
2019-04-03T10:56:44.133Z,89.03
2019-04-03T10:59:13.897Z,89.28
2019-04-03T11:01:42.570Z,89.57
2019-04-03T11:04:11.086Z,89.46
2019-04-03T11:06:39.388Z,89.57
2019-04-03T11:09:08.811Z,89.83
2019-04-03T11:11:37.684Z,88.82
2019-04-03T11:14:07.493Z,88.53
2019-04-03T11:16:38.637Z,88.59
2019-04-03T11:19:07.453Z,87.55
2019-04-03T11:21:35.842Z,86.07
2019-04-03T11:24:06.213Z,84.91
2019-04-03T11:26:35.003Z,84.18
2019-04-03T11:29:03.951Z,84.20
2019-04-03T11:31:35.820Z,83.44
2019-04-03T11:34:02.926Z,85.12
2019-04-03T11:36:31.283Z,85.26
2019-04-03T11:39:11.634Z,85.46
2019-04-03T11:41:29.656Z,84.21
2019-04-03T11:43:58.125Z,83.81
2019-04-03T11:46:26.461Z,83.40
2019-04-03T11:48:54.871Z,83.64
2019-04-03T11:51:23.316Z,85.87
2019-04-03T11:53:51.709Z,87.32
2019-04-03T11:56:20.109Z,86.16
2019-04-03T11:58:51.335Z,86.05
2019-04-03T12:01:19.073Z,86.72
2019-04-03T12:03:50.310Z,86.28
2019-04-03T12:06:19.538Z,86.54
2019-04-03T12:08:48.128Z,86.59
2019-04-03T12:11:16.421Z,87.90
2019-04-03T12:13:45.971Z,86.46
2019-04-03T12:16:14.971Z,86.92
2019-04-03T12:18:43.813Z,86.83
2019-04-03T12:21:14.123Z,86.56
2019-04-03T12:23:42.225Z,86.37
2019-04-03T12:26:11.391Z,87.28
2019-04-03T12:28:40.608Z,87.32
2019-04-03T12:31:08.853Z,85.29
2019-04-03T12:33:37.175Z,84.65
2019-04-03T12:36:06.878Z,85.01
2019-04-03T12:38:35.779Z,84.47
2019-04-03T12:41:04.977Z,84.53
2019-04-03T12:43:33.927Z,85.03
2019-04-03T12:46:03.088Z,85.02
2019-04-03T12:48:32.184Z,85.40
2019-04-03T12:51:00.560Z,84.71
2019-04-03T12:53:29.108Z,85.85
2019-04-03T12:55:58.269Z,85.53
2019-04-03T12:58:26.881Z,85.92
2019-04-03T13:00:55.149Z,85.88
2019-04-03T13:03:24.594Z,83.45
2019-04-03T13:05:53.794Z,82.99
2019-04-03T13:08:22.276Z,84.59
2019-04-03T13:10:50.659Z,84.81
2019-04-03T13:13:19.242Z,84.97
2019-04-03T13:15:48.226Z,84.24
2019-04-03T13:18:16.740Z,84.99
2019-04-03T13:20:45.017Z,85.80
2019-04-03T13:23:15.149Z,83.36
2019-04-03T13:25:44.246Z,84.82
2019-04-03T13:28:12.749Z,85.85
2019-04-03T13:30:43.274Z,86.61
2019-04-03T13:33:11.279Z,87.48
2019-04-03T13:35:39.838Z,88.12
2019-04-03T13:38:08.496Z,88.35
2019-04-03T13:40:38.416Z,87.77
2019-04-03T13:43:07.101Z,89.06
2019-04-03T13:45:35.720Z,89.66
2019-04-03T13:48:04.483Z,90.38
2019-04-03T13:50:32.913Z,90.68
2019-04-03T13:53:02.592Z,91.47
2019-04-03T13:55:33.776Z,92.23
2019-04-03T13:58:01.832Z,91.94
2019-04-03T14:00:32.109Z,92.42
2019-04-03T14:03:00.460Z,93.14
2019-04-03T14:05:32.260Z,93.02
2019-04-03T14:07:58.900Z,93.23
2019-04-03T14:10:27.874Z,93.60
2019-04-03T14:12:56.585Z,93.55
2019-04-03T14:15:25.286Z,95.18
2019-04-03T14:17:57.672Z,94.60
2019-04-03T14:20:25.265Z,93.97
2019-04-03T14:22:53.538Z,93.62
2019-04-03T14:25:23.763Z,93.10
2019-04-03T14:27:52.199Z,92.52
2019-04-03T14:30:21.558Z,93.38
2019-04-03T14:32:51.878Z,94.24
2019-04-03T14:35:50.426Z,94.19
2019-04-03T14:37:49.981Z,94.45
2019-04-03T14:40:18.282Z,95.16
2019-04-03T14:42:46.589Z,95.75
2019-04-03T14:45:15.366Z,96.16
2019-04-03T14:47:44.277Z,95.56
2019-04-03T14:50:12.566Z,96.08
2019-04-03T14:52:40.992Z,97.33
2019-04-03T14:55:18.201Z,96.01
2019-04-03T14:57:39.503Z,94.17
2019-04-03T15:00:25.002Z,91.56
2019-04-03T15:02:41.056Z,91.75
2019-04-03T15:05:09.779Z,90.61
2019-04-03T15:07:38.102Z,92.31
2019-04-03T15:10:07.405Z,92.32
2019-04-03T15:12:38.626Z,93.45
2019-04-03T15:15:06.126Z,92.90
2019-04-03T15:17:37.252Z,92.03
2019-04-03T15:20:07.117Z,92.15
2019-04-03T15:22:35.731Z,90.24
2019-04-03T15:25:05.164Z,91.21
2019-04-03T15:27:33.666Z,91.73
2019-04-03T15:30:02.175Z,91.91
2019-04-03T15:32:31.095Z,92.28
2019-04-03T15:35:00.979Z,91.55
2019-04-03T15:37:29.726Z,90.87
2019-04-03T15:39:59.137Z,91.64
2019-04-03T15:42:27.910Z,93.32
2019-04-03T15:44:57.951Z,92.89
2019-04-03T15:47:35.039Z,92.60
2019-04-03T15:49:58.829Z,92.16
2019-04-03T15:52:32.101Z,91.69
2019-04-03T15:55:03.618Z,91.99
2019-04-03T15:57:30.936Z,92.26
2019-04-03T16:00:01.835Z,90.94
2019-04-03T16:02:30.009Z,91.55
2019-04-03T16:04:59.863Z,91.95
2019-04-03T16:07:28.636Z,92.41
2019-04-03T16:09:57.146Z,92.30
2019-04-03T16:12:25.766Z,91.04
2019-04-03T16:14:54.194Z,91.50
2019-04-03T16:17:22.627Z,90.72
2019-04-03T16:19:52.305Z,90.75
2019-04-03T16:22:21.539Z,90.18
2019-04-03T16:24:50.117Z,89.68
2019-04-03T16:27:18.519Z,90.04
2019-04-03T16:29:47.008Z,90.21
2019-04-03T16:32:15.413Z,89.93
2019-04-03T16:34:43.879Z,90.22
2019-04-03T16:37:12.225Z,90.53
2019-04-03T16:39:41.378Z,90.62
2019-04-03T16:42:09.734Z,90.66
2019-04-03T16:44:38.505Z,90.89
2019-04-03T16:47:07.093Z,91.06
2019-04-03T16:49:35.802Z,91.19
2019-04-03T16:52:05.575Z,90.70
2019-04-03T16:54:34.479Z,91.00
2019-04-03T16:57:03.677Z,91.41
2019-04-03T16:59:35.432Z,91.92
2019-04-03T17:02:02.704Z,92.25
2019-04-03T17:04:31.155Z,92.56
2019-04-03T17:06:59.481Z,92.74
2019-04-03T17:09:27.774Z,92.54
2019-04-03T17:11:56.859Z,92.40
2019-04-03T17:14:25.732Z,92.07
2019-04-03T17:16:54.202Z,92.30
2019-04-03T17:19:22.584Z,92.44
2019-04-03T17:21:51.464Z,92.73
2019-04-03T17:24:19.868Z,93.19
2019-04-03T17:26:53.920Z,93.46
2019-04-03T17:29:18.503Z,93.71
2019-04-03T17:31:47.015Z,94.16
2019-04-03T17:34:15.845Z,94.46
2019-04-03T17:36:44.337Z,94.55
2019-04-03T17:39:12.594Z,94.56
2019-04-03T17:41:40.881Z,94.62
2019-04-03T17:44:09.183Z,94.86
2019-04-03T17:46:39.872Z,95.16
2019-04-03T17:49:07.668Z,95.11
2019-04-03T17:51:36.216Z,95.21
2019-04-03T17:54:07.520Z,95.57
2019-04-03T17:56:35.672Z,95.80
2019-04-03T17:59:04.073Z,96.05
2019-04-03T18:01:32.435Z,96.23
2019-04-03T18:04:00.714Z,96.29
2019-04-03T18:06:28.996Z,96.56
2019-04-03T18:08:58.570Z,96.89
2019-04-03T18:11:26.938Z,97.15
2019-04-03T18:13:55.631Z,97.52
2019-04-03T18:16:24.208Z,97.86
2019-04-03T18:18:52.487Z,98.06
2019-04-03T18:21:20.837Z,98.15
2019-04-03T18:23:49.303Z,98.33
2019-04-03T18:26:19.357Z,98.38
2019-04-03T18:28:47.708Z,98.52
2019-04-03T18:31:16.183Z,98.68
2019-04-03T18:33:44.551Z,98.89
2019-04-03T18:36:12.831Z,99.11
2019-04-03T18:38:41.215Z,99.33
2019-04-03T18:41:09.566Z,99.66
2019-04-03T18:43:37.854Z,99.98
2019-04-03T18:46:06.164Z,100.00
2019-04-03T18:48:34.470Z,100.00
2019-04-03T18:51:05.666Z,100.00
2019-04-03T18:53:32.956Z,100.00
2019-04-03T18:56:01.240Z,100.00
2019-04-03T18:58:29.655Z,100.00
2019-04-03T19:00:57.990Z,100.00
2019-04-03T19:03:26.413Z,100.00
2019-04-03T19:05:55.074Z,100.00
2019-04-03T19:08:23.355Z,100.00
2019-04-03T19:11:01.579Z,100.00
2019-04-03T19:13:21.721Z,100.00
2019-04-03T19:15:50.105Z,100.00
2019-04-03T19:18:19.951Z,100.00
2019-04-03T19:20:48.414Z,100.00
2019-04-03T19:23:16.692Z,100.00
2019-04-03T19:25:45.918Z,100.00
2019-04-03T19:28:14.448Z,100.00
2019-04-03T19:30:42.856Z,100.00
2019-04-03T19:33:12.053Z,100.00
2019-04-03T19:35:41.438Z,100.00
2019-04-03T19:38:09.859Z,100.00
2019-04-03T19:40:40.270Z,100.00
2019-04-03T19:43:08.219Z,100.00
2019-04-03T19:45:36.661Z,100.00
2019-04-03T19:48:04.992Z,100.00
2019-04-03T19:50:33.295Z,100.00
2019-04-03T19:53:01.604Z,100.00
2019-04-03T19:55:29.931Z,100.00
2019-04-03T19:57:58.386Z,100.00
2019-04-03T20:00:26.894Z,100.00
2019-04-03T20:02:55.208Z,100.00
2019-04-03T20:05:23.526Z,100.00
2019-04-03T20:07:51.851Z,100.00
2019-04-03T20:10:20.165Z,100.00
2019-04-03T20:12:48.489Z,100.00
2019-04-03T20:15:16.847Z,100.00
2019-04-03T20:17:45.136Z,100.00
2019-04-03T20:20:13.728Z,100.00
2019-04-03T20:22:42.647Z,100.00
2019-04-03T20:25:15.208Z,100.00
2019-04-03T20:27:42.884Z,100.00
2019-04-03T20:30:11.247Z,100.00
2019-04-03T20:32:40.753Z,100.00
2019-04-03T20:35:09.294Z,100.00
2019-04-03T20:37:37.633Z,100.00
2019-04-03T20:40:06.458Z,100.00
2019-04-03T20:42:34.744Z,100.00
2019-04-03T20:45:03.182Z,100.00
2019-04-03T20:47:31.474Z,100.00
2019-04-03T20:49:59.802Z,100.00
2019-04-03T20:52:28.227Z,100.00
2019-04-03T20:54:56.529Z,100.00
2019-04-03T20:57:24.804Z,100.00
2019-04-03T21:00:02.033Z,100.00
2019-04-03T21:02:23.306Z,100.00
2019-04-03T21:04:51.715Z,100.00
2019-04-03T21:07:20.099Z,100.00
2019-04-03T21:09:48.425Z,100.00
2019-04-03T21:12:16.716Z,100.00
2019-04-03T21:14:47.462Z,100.00
2019-04-03T21:17:15.066Z,100.00
2019-04-03T21:19:43.736Z,100.00
2019-04-03T21:22:12.829Z,100.00
2019-04-03T21:24:41.118Z,100.00
2019-04-03T21:27:09.494Z,100.00
2019-04-03T21:29:37.823Z,100.00
2019-04-03T21:32:06.109Z,100.00
2019-04-03T21:34:34.729Z,100.00
2019-04-03T21:37:03.055Z,100.00
2019-04-03T21:39:33.618Z,100.00
2019-04-03T21:42:01.357Z,100.00
2019-04-03T21:44:29.958Z,100.00
2019-04-03T21:47:00.009Z,100.00
2019-04-03T21:49:28.521Z,100.00
2019-04-03T21:51:57.172Z,100.00
2019-04-03T21:54:26.907Z,100.00
2019-04-03T21:56:55.633Z,100.00
2019-04-03T21:59:24.484Z,100.00
2019-04-03T22:01:52.834Z,100.00
2019-04-03T22:04:23.439Z,100.00
2019-04-03T22:06:54.139Z,100.00
2019-04-03T22:09:24.321Z,100.00
2019-04-03T22:11:54.900Z,100.00
2019-04-03T22:14:23.168Z,100.00
2019-04-03T22:16:52.058Z,100.00
2019-04-03T22:19:20.350Z,100.00
2019-04-03T22:21:48.693Z,100.00
2019-04-03T22:24:16.975Z,100.00
2019-04-03T22:26:45.542Z,100.00
2019-04-03T22:29:13.852Z,100.00
2019-04-03T22:31:42.136Z,100.00
2019-04-03T22:34:10.514Z,100.00
2019-04-03T22:36:38.782Z,100.00
2019-04-03T22:39:08.127Z,100.00
2019-04-03T22:41:37.073Z,100.00
2019-04-03T22:44:05.393Z,100.00
2019-04-03T22:46:33.747Z,100.00
2019-04-03T22:49:02.064Z,100.00
2019-04-03T22:51:30.382Z,100.00
2019-04-03T22:53:58.673Z,100.00
2019-04-03T22:56:26.988Z,100.00
2019-04-03T22:58:58.744Z,100.00
2019-04-03T23:01:27.929Z,100.00
2019-04-03T23:03:57.041Z,100.00
2019-04-03T23:06:25.351Z,100.00
2019-04-03T23:08:54.296Z,100.00
2019-04-03T23:11:22.742Z,100.00
2019-04-03T23:13:51.045Z,100.00
2019-04-03T23:16:19.681Z,100.00
2019-04-03T23:18:47.969Z,100.00
2019-04-03T23:21:16.395Z,100.00
2019-04-03T23:23:44.712Z,100.00
2019-04-03T23:26:13.001Z,100.00
2019-04-03T23:28:41.348Z,100.00
2019-04-03T23:31:11.154Z,100.00
2019-04-03T23:33:39.651Z,100.00
2019-04-03T23:36:07.936Z,100.00
2019-04-03T23:38:36.246Z,100.00
2019-04-03T23:41:06.108Z,100.00
2019-04-03T23:43:35.071Z,100.00
2019-04-03T23:46:03.381Z,100.00
2019-04-03T23:48:31.805Z,100.00
2019-04-03T23:51:00.114Z,100.00
2019-04-03T23:53:28.495Z,100.00
2019-04-03T23:55:58.480Z,100.00
2019-04-03T23:58:26.787Z,100.00
